sensor_id;sensor_type;location;lat;lon;timestamp;temperature;humidity
6018;DHT22;3037;51.068;13.780;2023-04-01T00:01:24;10.80;1.00
6018;DHT22;3037;51.068;13.780;2023-04-01T00:03:50;10.80;99.90
6018;DHT22;3037;51.068;13.780;2023-04-01T00:06:18;10.70;99.90
6018;DHT22;3037;51.068;13.780;2023-04-01T00:08:44;10.70;1.00
6018;DHT22;3037;51.068;13.780;2023-04-01T00:11:10;10.80;1.00
6018;DHT22;3037;51.068;13.780;2023-04-01T00:13:36;10.70;1.00
6018;DHT22;3037;51.068;13.780;2023-04-01T00:16:01;10.70;99.90
6018;DHT22;3037;51.068;13.780;2023-04-01T00:18:28;10.70;1.00
6018;DHT22;3037;51.068;13.780;2023-04-01T00:20:54;10.60;1.00
6018;DHT22;3037;51.068;13.780;2023-04-01T00:23:19;10.70;1.00
6018;DHT22;3037;51.068;13.780;2023-04-01T00:25:46;10.70;1.00
6018;DHT22;3037;51.068;13.780;2023-04-01T00:28:16;10.70;1.00
6018;DHT22;3037;51.068;13.780;2023-04-01T00:30:42;10.70;1.00
6018;DHT22;3037;51.068;13.780;2023-04-01T00:33:07;10.70;23.70
6018;DHT22;3037;51.068;13.780;2023-04-01T00:35:33;10.80;1.00
6018;DHT22;3037;51.068;13.780;2023-04-01T00:37:59;10.70;99.90
6018;DHT22;3037;51.068;13.780;2023-04-01T00:40:34;10.70;99.90
6018;DHT22;3037;51.068;13.780;2023-04-01T00:43:00;10.70;99.90
6018;DHT22;3037;51.068;13.780;2023-04-01T00:45:35;10.70;84.00
6018;DHT22;3037;51.068;13.780;2023-04-01T00:48:07;10.70;90.30
6018;DHT22;3037;51.068;13.780;2023-04-01T00:50:34;10.60;99.90
6018;DHT22;3037;51.068;13.780;2023-04-01T00:53:01;10.60;1.00
6018;DHT22;3037;51.068;13.780;2023-04-01T00:55:29;10.60;1.00
6018;DHT22;3037;51.068;13.780;2023-04-01T00:57:57;10.60;99.90
6018;DHT22;3037;51.068;13.780;2023-04-01T01:00:24;10.60;1.00
6018;DHT22;3037;51.068;13.780;2023-04-01T01:02:51;10.60;1.00
6018;DHT22;3037;51.068;13.780;2023-04-01T01:05:20;10.60;1.00
6018;DHT22;3037;51.068;13.780;2023-04-01T01:08:03;10.70;1.00
6018;DHT22;3037;51.068;13.780;2023-04-01T01:10:36;10.60;99.90
6018;DHT22;3037;51.068;13.780;2023-04-01T01:13:16;10.60;1.00
6018;DHT22;3037;51.068;13.780;2023-04-01T01:15:52;10.70;99.90
6018;DHT22;3037;51.068;13.780;2023-04-01T01:24:49;10.70;99.90
6018;DHT22;3037;51.068;13.780;2023-04-01T01:26:53;10.60;1.00
6018;DHT22;3037;51.068;13.780;2023-04-01T01:35:24;10.70;1.00
6018;DHT22;3037;51.068;13.780;2023-04-01T01:37:55;10.70;1.00
6018;DHT22;3037;51.068;13.780;2023-04-01T01:40:22;10.70;1.00
6018;DHT22;3037;51.068;13.780;2023-04-01T01:42:53;10.80;99.90
6018;DHT22;3037;51.068;13.780;2023-04-01T01:45:21;10.70;99.90
6018;DHT22;3037;51.068;13.780;2023-04-01T01:47:49;10.70;99.90
6018;DHT22;3037;51.068;13.780;2023-04-01T01:50:15;10.80;99.90
6018;DHT22;3037;51.068;13.780;2023-04-01T01:52:42;10.80;99.90
6018;DHT22;3037;51.068;13.780;2023-04-01T01:55:38;10.80;99.90
6018;DHT22;3037;51.068;13.780;2023-04-01T01:58:22;10.70;99.90
6018;DHT22;3037;51.068;13.780;2023-04-01T02:00:53;10.80;99.90
6018;DHT22;3037;51.068;13.780;2023-04-01T02:03:21;10.70;99.90
6018;DHT22;3037;51.068;13.780;2023-04-01T02:05:50;10.80;99.90
6018;DHT22;3037;51.068;13.780;2023-04-01T02:08:30;10.70;99.90
6018;DHT22;3037;51.068;13.780;2023-04-01T02:11:02;10.80;99.90
6018;DHT22;3037;51.068;13.780;2023-04-01T02:13:52;10.70;99.90
6018;DHT22;3037;51.068;13.780;2023-04-01T02:16:23;10.70;99.90
6018;DHT22;3037;51.068;13.780;2023-04-01T02:18:53;10.70;99.90
6018;DHT22;3037;51.068;13.780;2023-04-01T02:21:22;10.70;99.90
6018;DHT22;3037;51.068;13.780;2023-04-01T02:23:50;10.70;99.90
6018;DHT22;3037;51.068;13.780;2023-04-01T02:26:17;10.70;99.90
6018;DHT22;3037;51.068;13.780;2023-04-01T02:28:45;10.70;99.90
6018;DHT22;3037;51.068;13.780;2023-04-01T02:31:12;10.70;99.90
6018;DHT22;3037;51.068;13.780;2023-04-01T02:33:39;10.70;99.90
6018;DHT22;3037;51.068;13.780;2023-04-01T02:36:05;10.70;99.90
6018;DHT22;3037;51.068;13.780;2023-04-01T02:38:31;10.70;99.90
6018;DHT22;3037;51.068;13.780;2023-04-01T02:41:00;10.70;99.90
6018;DHT22;3037;51.068;13.780;2023-04-01T02:43:26;10.70;99.90
6018;DHT22;3037;51.068;13.780;2023-04-01T02:45:52;10.70;99.90
6018;DHT22;3037;51.068;13.780;2023-04-01T02:48:18;10.70;99.90
6018;DHT22;3037;51.068;13.780;2023-04-01T02:50:43;10.80;99.90
6018;DHT22;3037;51.068;13.780;2023-04-01T02:53:09;10.80;99.90
6018;DHT22;3037;51.068;13.780;2023-04-01T02:55:34;10.80;99.90
6018;DHT22;3037;51.068;13.780;2023-04-01T02:58:00;10.80;99.90
6018;DHT22;3037;51.068;13.780;2023-04-01T03:00:26;10.80;99.90
6018;DHT22;3037;51.068;13.780;2023-04-01T03:02:52;10.90;1.00
6018;DHT22;3037;51.068;13.780;2023-04-01T03:05:18;11.00;1.00
6018;DHT22;3037;51.068;13.780;2023-04-01T03:07:43;11.10;1.00
6018;DHT22;3037;51.068;13.780;2023-04-01T03:10:09;11.00;99.90
6018;DHT22;3037;51.068;13.780;2023-04-01T03:12:35;10.80;99.90
6018;DHT22;3037;51.068;13.780;2023-04-01T03:15:00;10.70;99.90
6018;DHT22;3037;51.068;13.780;2023-04-01T03:17:26;10.70;99.90
6018;DHT22;3037;51.068;13.780;2023-04-01T03:19:51;10.90;1.00
6018;DHT22;3037;51.068;13.780;2023-04-01T03:22:17;10.90;1.00
6018;DHT22;3037;51.068;13.780;2023-04-01T03:24:46;10.80;99.90
6018;DHT22;3037;51.068;13.780;2023-04-01T03:27:12;10.90;99.90
6018;DHT22;3037;51.068;13.780;2023-04-01T03:29:38;10.80;99.90
6018;DHT22;3037;51.068;13.780;2023-04-01T03:32:04;10.90;99.90
6018;DHT22;3037;51.068;13.780;2023-04-01T03:34:29;10.80;99.90
6018;DHT22;3037;51.068;13.780;2023-04-01T03:36:55;10.70;99.90
6018;DHT22;3037;51.068;13.780;2023-04-01T03:39:20;10.60;99.90
6018;DHT22;3037;51.068;13.780;2023-04-01T03:41:46;10.60;99.90
6018;DHT22;3037;51.068;13.780;2023-04-01T03:44:12;10.60;99.90
6018;DHT22;3037;51.068;13.780;2023-04-01T03:46:37;10.60;99.90
6018;DHT22;3037;51.068;13.780;2023-04-01T03:49:06;10.60;99.90
6018;DHT22;3037;51.068;13.780;2023-04-01T03:51:37;10.70;99.90
6018;DHT22;3037;51.068;13.780;2023-04-01T03:54:03;10.70;99.90
6018;DHT22;3037;51.068;13.780;2023-04-01T03:56:28;10.70;99.90
6018;DHT22;3037;51.068;13.780;2023-04-01T03:58:54;10.70;99.90
6018;DHT22;3037;51.068;13.780;2023-04-01T04:01:21;10.70;99.90
6018;DHT22;3037;51.068;13.780;2023-04-01T04:03:47;10.70;99.90
6018;DHT22;3037;51.068;13.780;2023-04-01T04:06:15;10.70;82.90
6018;DHT22;3037;51.068;13.780;2023-04-01T04:08:41;10.80;69.40
6018;DHT22;3037;51.068;13.780;2023-04-01T04:11:06;10.70;91.50
6018;DHT22;3037;51.068;13.780;2023-04-01T04:13:32;10.70;99.90
6018;DHT22;3037;51.068;13.780;2023-04-01T04:15:58;10.70;99.90
6018;DHT22;3037;51.068;13.780;2023-04-01T04:18:23;10.70;91.80
6018;DHT22;3037;51.068;13.780;2023-04-01T04:20:49;10.70;98.50
6018;DHT22;3037;51.068;13.780;2023-04-01T04:23:16;10.70;99.90
6018;DHT22;3037;51.068;13.780;2023-04-01T04:26:03;10.70;99.90
6018;DHT22;3037;51.068;13.780;2023-04-01T04:28:29;10.60;99.90
6018;DHT22;3037;51.068;13.780;2023-04-01T04:30:55;10.70;72.50
6018;DHT22;3037;51.068;13.780;2023-04-01T04:33:21;10.70;29.10
6018;DHT22;3037;51.068;13.780;2023-04-01T04:35:47;10.70;14.30
6018;DHT22;3037;51.068;13.780;2023-04-01T04:38:13;10.80;36.30
6018;DHT22;3037;51.068;13.780;2023-04-01T04:40:39;10.80;1.00
6018;DHT22;3037;51.068;13.780;2023-04-01T04:43:05;10.80;1.00
6018;DHT22;3037;51.068;13.780;2023-04-01T04:45:31;10.80;1.00
6018;DHT22;3037;51.068;13.780;2023-04-01T04:47:56;10.80;1.00
6018;DHT22;3037;51.068;13.780;2023-04-01T04:50:23;10.80;1.00
6018;DHT22;3037;51.068;13.780;2023-04-01T04:52:49;10.80;1.00
6018;DHT22;3037;51.068;13.780;2023-04-01T04:55:14;10.80;1.00
6018;DHT22;3037;51.068;13.780;2023-04-01T04:57:40;10.90;1.00
6018;DHT22;3037;51.068;13.780;2023-04-01T05:00:07;10.80;1.00
6018;DHT22;3037;51.068;13.780;2023-04-01T05:02:33;10.80;1.00
6018;DHT22;3037;51.068;13.780;2023-04-01T05:04:59;10.80;1.00
6018;DHT22;3037;51.068;13.780;2023-04-01T05:07:24;10.80;1.00
6018;DHT22;3037;51.068;13.780;2023-04-01T05:09:50;10.90;1.00
6018;DHT22;3037;51.068;13.780;2023-04-01T05:12:15;10.80;1.00
6018;DHT22;3037;51.068;13.780;2023-04-01T05:14:41;10.90;1.00
6018;DHT22;3037;51.068;13.780;2023-04-01T05:17:10;10.80;1.00
6018;DHT22;3037;51.068;13.780;2023-04-01T05:19:36;10.80;1.00
6018;DHT22;3037;51.068;13.780;2023-04-01T05:22:02;10.80;1.00
6018;DHT22;3037;51.068;13.780;2023-04-01T05:24:27;10.90;1.00
6018;DHT22;3037;51.068;13.780;2023-04-01T05:26:53;10.80;1.00
6018;DHT22;3037;51.068;13.780;2023-04-01T05:29:19;10.90;1.00
6018;DHT22;3037;51.068;13.780;2023-04-01T05:31:44;10.90;1.00
6018;DHT22;3037;51.068;13.780;2023-04-01T05:34:10;10.90;1.00
6018;DHT22;3037;51.068;13.780;2023-04-01T05:36:36;10.90;1.00
6018;DHT22;3037;51.068;13.780;2023-04-01T05:39:02;10.90;1.00
6018;DHT22;3037;51.068;13.780;2023-04-01T05:41:28;10.90;1.00
6018;DHT22;3037;51.068;13.780;2023-04-01T05:43:54;10.90;1.00
6018;DHT22;3037;51.068;13.780;2023-04-01T05:46:20;11.00;1.00
6018;DHT22;3037;51.068;13.780;2023-04-01T05:48:45;11.00;1.00
6018;DHT22;3037;51.068;13.780;2023-04-01T05:51:13;11.50;1.00
6018;DHT22;3037;51.068;13.780;2023-04-01T05:53:40;11.10;1.00
6018;DHT22;3037;51.068;13.780;2023-04-01T05:56:06;11.10;1.00
6018;DHT22;3037;51.068;13.780;2023-04-01T05:58:33;11.00;1.00
6018;DHT22;3037;51.068;13.780;2023-04-01T06:01:07;11.10;1.00
6018;DHT22;3037;51.068;13.780;2023-04-01T06:03:34;11.10;1.00
6018;DHT22;3037;51.068;13.780;2023-04-01T06:05:59;11.10;1.00
6018;DHT22;3037;51.068;13.780;2023-04-01T06:08:27;11.00;1.00
6018;DHT22;3037;51.068;13.780;2023-04-01T06:13:34;11.10;1.00
6018;DHT22;3037;51.068;13.780;2023-04-01T06:16:13;11.10;1.00
6018;DHT22;3037;51.068;13.780;2023-04-01T06:22:18;11.20;1.00
6018;DHT22;3037;51.068;13.780;2023-04-01T06:25:07;11.20;1.00
6018;DHT22;3037;51.068;13.780;2023-04-01T06:28:05;11.20;1.00
6018;DHT22;3037;51.068;13.780;2023-04-01T06:30:51;11.20;1.00
6018;DHT22;3037;51.068;13.780;2023-04-01T06:39:00;11.40;1.00
6018;DHT22;3037;51.068;13.780;2023-04-01T06:44:38;11.70;1.00
6018;DHT22;3037;51.068;13.780;2023-04-01T06:47:31;11.70;1.00
6018;DHT22;3037;51.068;13.780;2023-04-01T06:55:39;12.00;1.00
6018;DHT22;3037;51.068;13.780;2023-04-01T06:58:20;12.00;1.00
6018;DHT22;3037;51.068;13.780;2023-04-01T07:00:50;12.00;1.00
6018;DHT22;3037;51.068;13.780;2023-04-01T07:03:40;12.10;1.00
6018;DHT22;3037;51.068;13.780;2023-04-01T07:06:18;12.10;1.00
6018;DHT22;3037;51.068;13.780;2023-04-01T07:08:45;12.10;1.00
6018;DHT22;3037;51.068;13.780;2023-04-01T07:11:25;12.10;1.00
6018;DHT22;3037;51.068;13.780;2023-04-01T07:13:55;12.20;1.00
6018;DHT22;3037;51.068;13.780;2023-04-01T07:16:38;12.30;1.00
6018;DHT22;3037;51.068;13.780;2023-04-01T07:19:12;12.20;1.00
6018;DHT22;3037;51.068;13.780;2023-04-01T07:21:49;12.20;1.00
6018;DHT22;3037;51.068;13.780;2023-04-01T07:24:37;12.30;1.00
6018;DHT22;3037;51.068;13.780;2023-04-01T07:27:09;12.20;1.00
6018;DHT22;3037;51.068;13.780;2023-04-01T07:29:35;12.20;1.00
6018;DHT22;3037;51.068;13.780;2023-04-01T07:35:11;12.20;1.00
6018;DHT22;3037;51.068;13.780;2023-04-01T07:43:14;12.30;1.00
6018;DHT22;3037;51.068;13.780;2023-04-01T07:51:29;12.60;1.00
6018;DHT22;3037;51.068;13.780;2023-04-01T07:57:03;12.70;1.00
6018;DHT22;3037;51.068;13.780;2023-04-01T07:59:51;12.60;1.00
6018;DHT22;3037;51.068;13.780;2023-04-01T08:02:42;12.90;1.00
6018;DHT22;3037;51.068;13.780;2023-04-01T08:05:23;12.80;1.00
6018;DHT22;3037;51.068;13.780;2023-04-01T08:08:16;13.00;1.00
6018;DHT22;3037;51.068;13.780;2023-04-01T08:13:34;13.00;1.00
6018;DHT22;3037;51.068;13.780;2023-04-01T08:16:23;13.10;1.00
6018;DHT22;3037;51.068;13.780;2023-04-01T08:19:03;13.30;1.00
6018;DHT22;3037;51.068;13.780;2023-04-01T08:21:40;13.20;1.00
6018;DHT22;3037;51.068;13.780;2023-04-01T08:24:29;13.40;1.00
6018;DHT22;3037;51.068;13.780;2023-04-01T08:27:01;13.70;1.00
6018;DHT22;3037;51.068;13.780;2023-04-01T08:29:42;13.90;1.00
6018;DHT22;3037;51.068;13.780;2023-04-01T08:32:14;13.80;1.00
6018;DHT22;3037;51.068;13.780;2023-04-01T08:34:45;13.70;1.00
6018;DHT22;3037;51.068;13.780;2023-04-01T08:37:14;13.90;1.00
6018;DHT22;3037;51.068;13.780;2023-04-01T08:39:48;13.50;1.00
6018;DHT22;3037;51.068;13.780;2023-04-01T08:42:38;13.30;1.00
6018;DHT22;3037;51.068;13.780;2023-04-01T08:45:44;13.20;1.00
6018;DHT22;3037;51.068;13.780;2023-04-01T08:51:13;13.00;1.00
6018;DHT22;3037;51.068;13.780;2023-04-01T08:56:41;13.00;1.00
6018;DHT22;3037;51.068;13.780;2023-04-01T08:59:32;13.10;1.00
6018;DHT22;3037;51.068;13.780;2023-04-01T09:08:06;13.60;1.00
6018;DHT22;3037;51.068;13.780;2023-04-01T09:11:05;13.90;1.00
6018;DHT22;3037;51.068;13.780;2023-04-01T09:17:07;13.80;1.00
6018;DHT22;3037;51.068;13.780;2023-04-01T09:22:37;13.90;1.00
6018;DHT22;3037;51.068;13.780;2023-04-01T09:25:27;13.90;1.00
6018;DHT22;3037;51.068;13.780;2023-04-01T09:28:11;13.60;1.00
6018;DHT22;3037;51.068;13.780;2023-04-01T09:30:56;13.40;1.00
6018;DHT22;3037;51.068;13.780;2023-04-01T09:36:38;13.70;1.00
6018;DHT22;3037;51.068;13.780;2023-04-01T09:39:37;14.50;1.00
6018;DHT22;3037;51.068;13.780;2023-04-01T09:42:27;13.10;1.00
6018;DHT22;3037;51.068;13.780;2023-04-01T09:47:59;13.70;1.00
6018;DHT22;3037;51.068;13.780;2023-04-01T09:53:36;13.80;1.00
6018;DHT22;3037;51.068;13.780;2023-04-01T09:56:15;13.50;1.00
6018;DHT22;3037;51.068;13.780;2023-04-01T10:07:39;14.10;1.00
6018;DHT22;3037;51.068;13.780;2023-04-01T10:11:02;14.30;1.00
6018;DHT22;3037;51.068;13.780;2023-04-01T10:21:58;13.80;1.00
6018;DHT22;3037;51.068;13.780;2023-04-01T10:25:00;14.10;1.00
6018;DHT22;3037;51.068;13.780;2023-04-01T10:27:40;14.20;1.00
6018;DHT22;3037;51.068;13.780;2023-04-01T10:30:29;14.10;1.00
6018;DHT22;3037;51.068;13.780;2023-04-01T10:33:19;14.10;1.00
6018;DHT22;3037;51.068;13.780;2023-04-01T10:36:15;14.20;1.00
6018;DHT22;3037;51.068;13.780;2023-04-01T10:38:58;13.90;1.00
6018;DHT22;3037;51.068;13.780;2023-04-01T10:41:52;13.60;1.00
6018;DHT22;3037;51.068;13.780;2023-04-01T10:50:04;13.90;1.00
6018;DHT22;3037;51.068;13.780;2023-04-01T10:52:53;13.50;1.00
6018;DHT22;3037;51.068;13.780;2023-04-01T11:22:09;15.30;1.00
6018;DHT22;3037;51.068;13.780;2023-04-01T11:24:43;15.40;1.00
6018;DHT22;3037;51.068;13.780;2023-04-01T11:33:46;16.30;1.00
6018;DHT22;3037;51.068;13.780;2023-04-01T11:36:37;15.50;1.00
6018;DHT22;3037;51.068;13.780;2023-04-01T11:42:43;15.70;1.00
6018;DHT22;3037;51.068;13.780;2023-04-01T11:48:00;16.40;1.00
6018;DHT22;3037;51.068;13.780;2023-04-01T11:53:52;16.60;1.00
6018;DHT22;3037;51.068;13.780;2023-04-01T11:56:47;15.90;1.00
6018;DHT22;3037;51.068;13.780;2023-04-01T11:59:44;15.50;1.00
6018;DHT22;3037;51.068;13.780;2023-04-01T12:05:22;16.10;1.00
6018;DHT22;3037;51.068;13.780;2023-04-01T12:08:10;16.60;1.00
6018;DHT22;3037;51.068;13.780;2023-04-01T12:10:55;16.70;1.00
6018;DHT22;3037;51.068;13.780;2023-04-01T12:19:32;16.20;1.00
6018;DHT22;3037;51.068;13.780;2023-04-01T12:25:14;16.20;1.00
6018;DHT22;3037;51.068;13.780;2023-04-01T12:30:56;15.80;1.00
6018;DHT22;3037;51.068;13.780;2023-04-01T12:33:41;15.60;1.00
6018;DHT22;3037;51.068;13.780;2023-04-01T12:41:53;16.00;1.00
6018;DHT22;3037;51.068;13.780;2023-04-01T12:44:37;15.80;1.00
6018;DHT22;3037;51.068;13.780;2023-04-01T12:47:49;15.90;1.00
6018;DHT22;3037;51.068;13.780;2023-04-01T12:50:23;16.10;1.00
6018;DHT22;3037;51.068;13.780;2023-04-01T12:56:03;15.80;1.00
6018;DHT22;3037;51.068;13.780;2023-04-01T13:09:16;16.50;1.00
6018;DHT22;3037;51.068;13.780;2023-04-01T13:12:19;16.30;1.00
6018;DHT22;3037;51.068;13.780;2023-04-01T13:15:04;16.60;1.00
6018;DHT22;3037;51.068;13.780;2023-04-01T13:20:57;16.30;1.00
6018;DHT22;3037;51.068;13.780;2023-04-01T13:26:34;16.20;1.00
6018;DHT22;3037;51.068;13.780;2023-04-01T13:29:18;16.10;1.00
6018;DHT22;3037;51.068;13.780;2023-04-01T13:34:33;15.20;1.00
6018;DHT22;3037;51.068;13.780;2023-04-01T13:42:49;15.40;1.00
6018;DHT22;3037;51.068;13.780;2023-04-01T13:45:29;15.60;1.00
6018;DHT22;3037;51.068;13.780;2023-04-01T14:08:42;17.00;1.00
6018;DHT22;3037;51.068;13.780;2023-04-01T14:11:23;17.00;1.00
6018;DHT22;3037;51.068;13.780;2023-04-01T14:14:03;17.20;1.00
6018;DHT22;3037;51.068;13.780;2023-04-01T14:16:47;16.70;1.00
6018;DHT22;3037;51.068;13.780;2023-04-01T14:22:44;16.10;1.00
6018;DHT22;3037;51.068;13.780;2023-04-01T14:25:21;16.20;1.00
6018;DHT22;3037;51.068;13.780;2023-04-01T14:27:53;16.40;1.00
6018;DHT22;3037;51.068;13.780;2023-04-01T14:33:00;16.70;1.00
6018;DHT22;3037;51.068;13.780;2023-04-01T14:35:41;16.30;1.00
6018;DHT22;3037;51.068;13.780;2023-04-01T14:38:28;16.30;1.00
6018;DHT22;3037;51.068;13.780;2023-04-01T14:54:48;15.70;1.00
6018;DHT22;3037;51.068;13.780;2023-04-01T14:57:24;15.40;1.00
6018;DHT22;3037;51.068;13.780;2023-04-01T15:02:53;15.50;1.00
6018;DHT22;3037;51.068;13.780;2023-04-01T15:05:48;15.40;1.00
6018;DHT22;3037;51.068;13.780;2023-04-01T15:08:33;15.30;1.00
6018;DHT22;3037;51.068;13.780;2023-04-01T15:11:26;15.40;1.00
6018;DHT22;3037;51.068;13.780;2023-04-01T15:14:17;15.30;1.00
6018;DHT22;3037;51.068;13.780;2023-04-01T15:22:19;15.40;1.00
6018;DHT22;3037;51.068;13.780;2023-04-01T15:28:27;15.10;1.00
6018;DHT22;3037;51.068;13.780;2023-04-01T15:31:15;15.20;1.00
6018;DHT22;3037;51.068;13.780;2023-04-01T15:36:16;14.90;1.00
6018;DHT22;3037;51.068;13.780;2023-04-01T15:38:49;15.00;1.00
6018;DHT22;3037;51.068;13.780;2023-04-01T15:41:36;14.90;1.00
6018;DHT22;3037;51.068;13.780;2023-04-01T15:44:42;14.80;1.00
6018;DHT22;3037;51.068;13.780;2023-04-01T15:55:50;14.60;1.00
6018;DHT22;3037;51.068;13.780;2023-04-01T15:58:39;14.40;1.00
6018;DHT22;3037;51.068;13.780;2023-04-01T16:14:28;14.10;1.00
6018;DHT22;3037;51.068;13.780;2023-04-01T16:17:24;14.00;1.00
6018;DHT22;3037;51.068;13.780;2023-04-01T16:20:21;13.90;1.00
6018;DHT22;3037;51.068;13.780;2023-04-01T16:25:39;13.70;1.00
6018;DHT22;3037;51.068;13.780;2023-04-01T16:28:19;13.60;1.00
6018;DHT22;3037;51.068;13.780;2023-04-01T16:33:49;13.30;1.00
6018;DHT22;3037;51.068;13.780;2023-04-01T16:39:27;13.20;1.00
6018;DHT22;3037;51.068;13.780;2023-04-01T16:45:06;13.20;1.00
6018;DHT22;3037;51.068;13.780;2023-04-01T16:47:50;13.30;1.00
6018;DHT22;3037;51.068;13.780;2023-04-01T16:50:27;13.30;1.00
6018;DHT22;3037;51.068;13.780;2023-04-01T16:53:18;13.30;1.00
6018;DHT22;3037;51.068;13.780;2023-04-01T16:56:36;13.20;1.00
6018;DHT22;3037;51.068;13.780;2023-04-01T16:59:32;13.00;1.00
6018;DHT22;3037;51.068;13.780;2023-04-01T17:12:37;12.80;1.00
6018;DHT22;3037;51.068;13.780;2023-04-01T17:15:21;12.80;1.00
6018;DHT22;3037;51.068;13.780;2023-04-01T17:20:48;12.90;1.00
6018;DHT22;3037;51.068;13.780;2023-04-01T17:28:49;12.50;1.00
6018;DHT22;3037;51.068;13.780;2023-04-01T17:42:48;12.70;1.00
6018;DHT22;3037;51.068;13.780;2023-04-01T17:45:25;12.30;1.00
6018;DHT22;3037;51.068;13.780;2023-04-01T17:53:32;12.00;99.90
6018;DHT22;3037;51.068;13.780;2023-04-01T17:56:02;11.90;1.00
6018;DHT22;3037;51.068;13.780;2023-04-01T18:03:54;11.80;1.00
6018;DHT22;3037;51.068;13.780;2023-04-01T18:06:50;11.80;1.00
6018;DHT22;3037;51.068;13.780;2023-04-01T18:09:46;12.20;99.90
6018;DHT22;3037;51.068;13.780;2023-04-01T18:12:37;12.60;99.90
6018;DHT22;3037;51.068;13.780;2023-04-01T18:18:35;12.70;99.90
6018;DHT22;3037;51.068;13.780;2023-04-01T18:23:47;12.70;1.00
6018;DHT22;3037;51.068;13.780;2023-04-01T18:26:32;13.00;1.00
6018;DHT22;3037;51.068;13.780;2023-04-01T18:31:42;12.60;99.90
6018;DHT22;3037;51.068;13.780;2023-04-01T18:34:40;12.50;99.90
6018;DHT22;3037;51.068;13.780;2023-04-01T18:37:34;12.40;99.90
6018;DHT22;3037;51.068;13.780;2023-04-01T18:43:29;11.70;1.00
6018;DHT22;3037;51.068;13.780;2023-04-01T18:46:07;11.60;1.00
6018;DHT22;3037;51.068;13.780;2023-04-01T18:49:08;11.50;1.00
6018;DHT22;3037;51.068;13.780;2023-04-01T18:54:17;11.30;1.00
6018;DHT22;3037;51.068;13.780;2023-04-01T18:56:47;11.30;1.00
6018;DHT22;3037;51.068;13.780;2023-04-01T18:59:32;11.20;1.00
6018;DHT22;3037;51.068;13.780;2023-04-01T19:02:20;11.30;1.00
6018;DHT22;3037;51.068;13.780;2023-04-01T19:05:16;11.30;1.00
6018;DHT22;3037;51.068;13.780;2023-04-01T19:07:49;11.30;1.00
6018;DHT22;3037;51.068;13.780;2023-04-01T19:13:00;11.30;34.20
6018;DHT22;3037;51.068;13.780;2023-04-01T19:18:37;10.70;1.00
6018;DHT22;3037;51.068;13.780;2023-04-01T19:27:14;10.60;1.00
6018;DHT22;3037;51.068;13.780;2023-04-01T19:33:22;10.60;1.00
6018;DHT22;3037;51.068;13.780;2023-04-01T19:36:02;10.70;1.00
6018;DHT22;3037;51.068;13.780;2023-04-01T19:38:40;10.60;99.90
6018;DHT22;3037;51.068;13.780;2023-04-01T19:41:33;10.60;99.90
6018;DHT22;3037;51.068;13.780;2023-04-01T19:44:36;10.70;1.00
6018;DHT22;3037;51.068;13.780;2023-04-01T19:47:27;10.60;1.00
6018;DHT22;3037;51.068;13.780;2023-04-01T19:52:36;10.80;1.00
6018;DHT22;3037;51.068;13.780;2023-04-01T19:55:55;10.70;1.00
6018;DHT22;3037;51.068;13.780;2023-04-01T20:00:52;10.50;1.00
6018;DHT22;3037;51.068;13.780;2023-04-01T20:03:30;10.50;99.90
6018;DHT22;3037;51.068;13.780;2023-04-01T20:14:56;10.70;99.90
6018;DHT22;3037;51.068;13.780;2023-04-01T20:17:25;11.00;1.00
6018;DHT22;3037;51.068;13.780;2023-04-01T20:23:02;10.60;99.90
6018;DHT22;3037;51.068;13.780;2023-04-01T20:25:37;10.60;99.90
6018;DHT22;3037;51.068;13.780;2023-04-01T20:34:03;10.50;1.00
6018;DHT22;3037;51.068;13.780;2023-04-01T20:37:00;10.50;99.90
6018;DHT22;3037;51.068;13.780;2023-04-01T20:42:49;10.60;1.00
6018;DHT22;3037;51.068;13.780;2023-04-01T20:45:21;10.60;99.90
6018;DHT22;3037;51.068;13.780;2023-04-01T20:53:11;10.50;18.30
6018;DHT22;3037;51.068;13.780;2023-04-01T20:58:28;10.60;1.00
6018;DHT22;3037;51.068;13.780;2023-04-01T21:01:20;10.70;1.00
6018;DHT22;3037;51.068;13.780;2023-04-01T21:04:16;10.60;13.80
6018;DHT22;3037;51.068;13.780;2023-04-01T21:06:52;10.60;99.90
6018;DHT22;3037;51.068;13.780;2023-04-01T21:09:46;10.50;1.00
6018;DHT22;3037;51.068;13.780;2023-04-01T21:12:29;10.70;1.00
6018;DHT22;3037;51.068;13.780;2023-04-01T21:15:37;10.80;99.90
6018;DHT22;3037;51.068;13.780;2023-04-01T21:18:28;10.80;99.90
6018;DHT22;3037;51.068;13.780;2023-04-01T21:23:54;10.80;1.00
6018;DHT22;3037;51.068;13.780;2023-04-01T21:29:38;10.70;99.90
6018;DHT22;3037;51.068;13.780;2023-04-01T21:35:08;10.60;1.00
6018;DHT22;3037;51.068;13.780;2023-04-01T21:43:28;10.50;99.90
6018;DHT22;3037;51.068;13.780;2023-04-01T21:49:09;10.40;99.90
6018;DHT22;3037;51.068;13.780;2023-04-01T21:51:52;10.40;99.90
6018;DHT22;3037;51.068;13.780;2023-04-01T21:54:35;10.50;99.90
6018;DHT22;3037;51.068;13.780;2023-04-01T22:00:09;10.30;99.90
6018;DHT22;3037;51.068;13.780;2023-04-01T22:05:34;10.30;99.90
6018;DHT22;3037;51.068;13.780;2023-04-01T22:11:04;10.20;99.90
6018;DHT22;3037;51.068;13.780;2023-04-01T22:13:39;10.10;99.90
6018;DHT22;3037;51.068;13.780;2023-04-01T22:16:37;10.00;99.90
6018;DHT22;3037;51.068;13.780;2023-04-01T22:19:27;9.90;99.90
6018;DHT22;3037;51.068;13.780;2023-04-01T22:22:14;10.00;99.90
6018;DHT22;3037;51.068;13.780;2023-04-01T22:25:00;10.00;99.90
6018;DHT22;3037;51.068;13.780;2023-04-01T22:32:45;9.90;99.90
6018;DHT22;3037;51.068;13.780;2023-04-01T22:41:19;9.60;99.90
6018;DHT22;3037;51.068;13.780;2023-04-01T22:43:51;9.60;99.90
6018;DHT22;3037;51.068;13.780;2023-04-01T22:46:32;9.60;99.90
6018;DHT22;3037;51.068;13.780;2023-04-01T22:51:57;9.60;99.90
6018;DHT22;3037;51.068;13.780;2023-04-01T22:54:45;9.60;99.90
6018;DHT22;3037;51.068;13.780;2023-04-01T22:57:28;9.50;99.90
6018;DHT22;3037;51.068;13.780;2023-04-01T23:00:05;9.60;99.90
6018;DHT22;3037;51.068;13.780;2023-04-01T23:02:38;9.60;99.90
6018;DHT22;3037;51.068;13.780;2023-04-01T23:05:10;9.50;99.90
6018;DHT22;3037;51.068;13.780;2023-04-01T23:10:47;9.50;99.90
6018;DHT22;3037;51.068;13.780;2023-04-01T23:13:22;9.40;99.90
6018;DHT22;3037;51.068;13.780;2023-04-01T23:15:51;9.40;99.90
6018;DHT22;3037;51.068;13.780;2023-04-01T23:18:37;9.30;99.90
6018;DHT22;3037;51.068;13.780;2023-04-01T23:21:38;9.30;99.90
6018;DHT22;3037;51.068;13.780;2023-04-01T23:26:55;9.30;99.90
6018;DHT22;3037;51.068;13.780;2023-04-01T23:29:22;9.20;99.90
6018;DHT22;3037;51.068;13.780;2023-04-01T23:32:02;9.20;99.90
6018;DHT22;3037;51.068;13.780;2023-04-01T23:34:30;9.10;99.90
6018;DHT22;3037;51.068;13.780;2023-04-01T23:37:00;9.10;99.90
6018;DHT22;3037;51.068;13.780;2023-04-01T23:39:40;9.00;99.90
6018;DHT22;3037;51.068;13.780;2023-04-01T23:42:12;9.00;99.90
6018;DHT22;3037;51.068;13.780;2023-04-01T23:44:39;9.00;99.90
6018;DHT22;3037;51.068;13.780;2023-04-01T23:47:06;9.00;99.90
6018;DHT22;3037;51.068;13.780;2023-04-01T23:49:38;9.00;99.90
6018;DHT22;3037;51.068;13.780;2023-04-01T23:55:13;8.90;99.90
6018;DHT22;3037;51.068;13.780;2023-04-01T23:57:39;9.00;99.90
